Time;durP1;ratioP1;P1;durP2;ratioP2;P2;SDS_P1;SDS_P2;PMS_P1;PMS_P2;Temp;Humidity;BMP_temperature;BMP_pressure;BME280_temperature;BME280_humidity;BME280_pressure;Samples;Min_cycle;Max_cycle;Signal;HPM_P1;HPM_P2
2022/04/15 00:00:42;;;;;;;;;6.00;6.00;;;;;18.80;52.08;102593.25;5072879;28;8775;-69
2022/04/15 00:03:08;;;;;;;;;5.25;5.25;;;;;18.78;51.35;102597.59;5071800;28;8878;-69
2022/04/15 00:05:45;;;;;;;;;5.75;5.75;;;;;18.80;51.60;102597.66;5071268;28;9512;-69
2022/04/15 00:08:11;;;;;;;;;5.00;5.00;;;;;18.78;51.67;102597.59;5072021;28;8779;-70
2022/04/15 00:10:45;;;;;;;;;5.25;5.25;;;;;18.79;51.82;102603.78;5070518;28;9589;-70
2022/04/15 00:13:12;;;;;;;;;6.50;6.50;;;;;18.77;51.59;102598.50;5071419;28;9455;-70
2022/04/15 00:15:38;;;;;;;;;6.50;5.25;;;;;18.77;51.45;102600.25;5071773;28;9651;-69
2022/04/15 00:18:04;;;;;;;;;5.25;5.00;;;;;18.77;51.57;102600.25;5075291;28;9606;-70
2022/04/15 00:20:29;;;;;;;;;8.75;8.25;;;;;18.76;51.51;102598.47;5072224;28;9648;-70
2022/04/15 00:22:54;;;;;;;;;4.75;4.75;;;;;18.76;51.45;102609.03;5069873;28;8835;-70
2022/04/15 00:25:21;;;;;;;;;5.50;5.50;;;;;18.69;51.55;102602.78;5071625;28;8791;-70
2022/04/15 00:27:46;;;;;;;;;8.50;8.25;;;;;18.71;51.28;102598.38;5072133;28;8772;-69
2022/04/15 00:30:12;;;;;;;;;6.00;6.00;;;;;18.73;51.79;102601.97;5071346;28;9552;-70
2022/04/15 00:32:38;;;;;;;;;5.50;5.50;;;;;18.72;51.38;102607.22;5071384;28;8780;-70
2022/04/15 00:35:05;;;;;;;;;4.75;4.75;;;;;18.71;51.48;102614.25;5072014;28;8792;-70
2022/04/15 00:37:31;;;;;;;;;6.00;6.00;;;;;18.72;51.31;102607.22;5070910;28;9747;-69
2022/04/15 00:39:56;;;;;;;;;5.75;5.75;;;;;18.70;51.25;102607.22;5072079;28;9657;-70
2022/04/15 00:42:24;;;;;;;;;5.00;5.00;;;;;18.70;51.45;102611.59;5070874;28;9692;-69
2022/04/15 00:44:53;;;;;;;;;5.00;5.00;;;;;18.70;51.14;102608.97;5070534;28;9550;-69
2022/04/15 00:47:30;;;;;;;;;6.50;6.50;;;;;18.68;51.22;102611.56;5072362;28;10555;-69
2022/04/15 00:49:56;;;;;;;;;5.25;5.25;;;;;18.70;51.27;102612.50;5070984;28;9739;-70
2022/04/15 00:52:23;;;;;;;;;5.00;5.00;;;;;18.69;51.39;102608.06;5069761;28;9384;-69
2022/04/15 00:54:52;;;;;;;;;5.75;5.75;;;;;18.68;51.11;102613.31;5071323;28;9566;-69
2022/04/15 00:57:22;;;;;;;;;5.75;5.75;;;;;18.68;51.14;102616.84;5071416;28;9553;-70
2022/04/15 00:59:51;;;;;;;;;4.75;4.75;;;;;18.68;51.13;102615.97;5070392;28;10215;-70
2022/04/15 01:02:17;;;;;;;;;5.50;5.00;;;;;18.66;50.82;102615.94;5069943;28;9499;-69
2022/04/15 01:04:43;;;;;;;;;3.25;2.00;;;;;18.66;51.23;102615.94;5071061;28;9731;-70
2022/04/15 01:07:12;;;;;;;;;4.00;4.00;;;;;18.66;51.02;102620.34;5069584;28;9665;-70
2022/04/15 01:09:42;;;;;;;;;5.75;5.75;;;;;18.65;51.25;102621.22;5071056;28;9603;-70
2022/04/15 01:12:09;;;;;;;;;5.00;5.00;;;;;18.67;51.06;102622.16;5071139;28;9589;-70
2022/04/15 01:14:36;;;;;;;;;5.00;5.00;;;;;18.65;50.97;102618.56;5069269;28;9561;-69
2022/04/15 01:17:02;;;;;;;;;5.25;5.25;;;;;18.64;50.88;102627.34;5071350;28;9447;-69
2022/04/15 01:19:27;;;;;;;;;6.00;6.00;;;;;18.66;50.77;102630.94;5070695;28;10270;-71
2022/04/15 01:21:55;;;;;;;;;5.50;5.00;;;;;18.62;50.72;102627.34;5071366;28;8775;-69
2022/04/15 01:24:20;;;;;;;;;6.00;6.00;;;;;18.62;50.89;102626.44;5071312;28;9542;-70
2022/04/15 01:26:45;;;;;;;;;8.00;8.00;;;;;18.63;50.78;102628.25;5070429;28;9450;-69
2022/04/15 01:29:10;;;;;;;;;9.00;5.50;;;;;18.61;50.86;102628.19;5071367;28;8759;-70
2022/04/15 01:31:36;;;;;;;;;3.00;3.00;;;;;18.62;50.82;102621.16;5071417;28;8784;-70
2022/04/15 01:34:01;;;;;;;;;5.00;4.00;;;;;18.60;50.77;102617.59;5070339;28;8776;-70
2022/04/15 01:36:26;;;;;;;;;8.25;8.00;;;;;18.61;50.87;102620.28;5071588;28;8784;-70
2022/04/15 01:38:56;;;;;;;;;7.25;6.50;;;;;18.60;50.78;102631.72;5070959;28;8748;-69
2022/04/15 01:41:22;;;;;;;;;5.75;5.75;;;;;18.61;50.69;102628.19;5070734;28;8799;-70
2022/04/15 01:43:47;;;;;;;;;5.75;5.75;;;;;18.61;50.67;102632.59;5070795;28;9622;-70
2022/04/15 01:46:13;;;;;;;;;4.00;4.00;;;;;18.56;50.51;102629.88;5071159;28;9538;-70
2022/04/15 01:48:38;;;;;;;;;5.00;5.00;;;;;18.60;50.61;102638.75;5070401;28;8799;-70
2022/04/15 01:51:03;;;;;;;;;9.00;6.50;;;;;18.59;51.04;102632.59;5070827;28;8808;-70
2022/04/15 01:53:28;;;;;;;;;5.25;5.00;;;;;18.61;50.76;102640.53;5070866;28;9539;-69
2022/04/15 01:55:54;;;;;;;;;7.25;5.00;;;;;18.60;50.94;102644.03;5069501;28;8854;-70
2022/04/15 01:58:19;;;;;;;;;8.00;6.00;;;;;18.59;50.50;102651.13;5070583;28;8814;-70
2022/04/15 02:00:44;;;;;;;;;8.00;6.25;;;;;18.60;50.71;102646.69;5070355;28;8768;-70
2022/04/15 02:03:10;;;;;;;;;6.50;6.00;;;;;18.55;50.50;102643.97;5069748;28;8819;-70
2022/04/15 02:05:35;;;;;;;;;4.25;4.25;;;;;18.57;50.60;102652.81;5070909;28;9512;-69
2022/04/15 02:08:00;;;;;;;;;4.50;3.50;;;;;18.55;50.73;102643.97;5070170;28;8804;-69
2022/04/15 02:10:25;;;;;;;;;4.75;4.50;;;;;18.58;50.52;102651.06;5069777;28;8772;-70
2022/04/15 02:12:51;;;;;;;;;4.75;4.75;;;;;18.55;50.42;102649.28;5067809;28;8860;-70
2022/04/15 02:15:16;;;;;;;;;3.75;3.75;;;;;18.56;50.64;102652.81;5070730;28;8779;-70
2022/04/15 02:17:41;;;;;;;;;5.75;5.00;;;;;18.56;50.49;102648.38;5069452;28;8831;-70
2022/04/15 02:20:10;;;;;;;;;6.50;5.25;;;;;18.56;50.35;102655.47;5070429;28;8775;-69
2022/04/15 02:22:35;;;;;;;;;6.00;4.75;;;;;18.54;50.56;102651.88;5070150;28;8783;-70
2022/04/15 02:25:01;;;;;;;;;4.00;4.00;;;;;18.56;50.42;102655.47;5069844;28;9650;-68
2022/04/15 02:27:26;;;;;;;;;7.75;5.25;;;;;18.54;50.51;102657.16;5070093;28;8764;-70
2022/04/15 02:29:51;;;;;;;;;3.75;3.75;;;;;18.55;50.32;102662.50;5069284;28;8783;-69
2022/04/15 02:32:17;;;;;;;;;7.25;4.75;;;;;18.54;50.28;102657.16;5070179;28;8802;-70
2022/04/15 02:34:42;;;;;;;;;5.00;4.50;;;;;18.54;50.44;102658.06;5070431;28;8776;-70
2022/04/15 02:37:07;;;;;;;;;5.50;5.50;;;;;18.53;50.28;102664.22;5069338;28;8784;-69
2022/04/15 02:39:32;;;;;;;;;3.25;3.25;;;;;18.54;50.49;102660.72;5069883;28;8803;-69
2022/04/15 02:42:00;;;;;;;;;3.25;3.25;;;;;18.53;50.53;102660.66;5070137;28;8894;-69
2022/04/15 02:44:25;;;;;;;;;5.00;5.00;;;;;18.53;50.27;102661.56;5069718;28;8783;-69
2022/04/15 02:46:53;;;;;;;;;3.50;3.50;;;;;18.53;50.22;102669.50;5069303;28;9444;-69
2022/04/15 02:49:18;;;;;;;;;4.00;4.00;;;;;18.54;50.67;102667.75;5070331;28;8841;-69
2022/04/15 02:51:43;;;;;;;;;4.25;4.25;;;;;18.53;50.49;102665.97;5069054;28;9571;-70
2022/04/15 02:54:09;;;;;;;;;4.00;4.00;;;;;18.55;50.67;102669.53;5070132;28;8815;-69
2022/04/15 02:56:34;;;;;;;;;3.00;3.00;;;;;18.53;51.12;102680.09;5069896;28;9511;-69
2022/04/15 02:58:59;;;;;;;;;4.50;4.50;;;;;18.54;50.21;102665.09;5068879;28;8839;-70
2022/04/15 03:01:24;;;;;;;;;4.50;4.50;;;;;18.53;50.58;102668.59;5069837;28;8794;-70
2022/04/15 03:03:56;;;;;;;;;3.00;3.00;;;;;18.52;50.51;102666.84;5069373;28;8787;-70
2022/04/15 03:06:21;;;;;;;;;5.00;3.67;;;;;18.52;50.87;102669.50;5068908;28;8808;-70
2022/04/15 03:08:46;;;;;;;;;3.00;3.00;;;;;18.52;50.59;102677.44;5069801;28;9347;-70
2022/04/15 03:11:12;;;;;;;;;3.67;3.67;;;;;18.53;51.05;102673.91;5069891;28;8783;-70
2022/04/15 03:13:37;;;;;;;;;2.75;2.75;;;;;18.50;50.85;102673.81;5066517;28;8865;-70
2022/04/15 03:16:03;;;;;;;;;3.00;3.00;;;;;18.51;50.46;102671.25;5069007;28;8825;-70
2022/04/15 03:18:28;;;;;;;;;3.00;3.00;;;;;18.51;50.77;102680.91;5069728;28;8799;-69
2022/04/15 03:20:57;;;;;;;;;3.00;3.00;;;;;18.51;50.76;102681.81;5068936;28;9368;-70
2022/04/15 03:23:22;;;;;;;;;3.50;3.50;;;;;18.51;50.96;102684.47;5069708;28;8803;-71
2022/04/15 03:25:47;;;;;;;;;2.00;2.00;;;;;18.50;50.52;102680.00;5069238;28;9529;-70
2022/04/15 03:28:15;;;;;;;;;3.00;3.00;;;;;18.49;50.55;102688.78;5069307;28;8803;-70
2022/04/15 03:30:40;;;;;;;;;4.00;4.00;;;;;18.49;50.70;102690.53;5071562;28;8779;-70
2022/04/15 03:33:05;;;;;;;;;3.00;3.00;;;;;18.49;50.31;102696.72;5072789;28;9552;-70
2022/04/15 03:35:31;;;;;;;;;3.00;3.00;;;;;18.48;50.52;102697.59;5073337;28;8849;-69
2022/04/15 03:37:56;;;;;;;;;2.25;2.25;;;;;18.49;50.73;102695.81;5073394;28;8771;-70
2022/04/15 03:40:21;;;;;;;;;4.50;4.00;;;;;18.48;50.45;102700.25;5072674;28;8752;-70
2022/04/15 03:42:51;;;;;;;;;4.00;3.50;;;;;18.49;50.18;102698.47;5072942;28;9527;-70
2022/04/15 03:45:19;;;;;;;;;2.75;2.75;;;;;18.48;50.53;102702.91;5073011;28;8977;-72
2022/04/15 03:47:50;;;;;;;;;3.00;2.50;;;;;18.49;50.25;102702.00;5072426;28;9434;-71
2022/04/15 03:50:16;;;;;;;;;4.25;3.25;;;;;18.48;50.27;102702.91;5073265;28;9391;-70
2022/04/15 03:52:45;;;;;;;;;1.50;1.50;;;;;18.48;50.38;102707.28;5073291;28;9461;-70
2022/04/15 03:55:16;;;;;;;;;3.00;3.00;;;;;18.48;50.20;102709.94;5072630;28;9382;-70
2022/04/15 03:57:41;;;;;;;;;3.75;3.75;;;;;18.48;50.54;102708.19;5072939;28;9859;-69
2022/04/15 04:00:15;;;;;;;;;2.25;2.25;;;;;18.48;50.39;102710.84;5072788;28;9412;-69
2022/04/15 04:02:44;;;;;;;;;4.50;4.50;;;;;18.47;50.26;102703.75;5072333;28;8831;-69
2022/04/15 04:05:10;;;;;;;;;3.75;3.75;;;;;18.46;50.58;102707.25;5073031;28;9580;-69
2022/04/15 04:07:35;;;;;;;;;2.25;2.25;;;;;18.48;50.10;102709.94;5072847;28;9554;-70
2022/04/15 04:10:00;;;;;;;;;1.67;1.67;;;;;18.48;50.10;102712.59;5072006;28;8780;-69
2022/04/15 04:12:31;;;;;;;;;4.00;4.00;;;;;18.48;50.07;102709.94;5069309;28;8821;-70
2022/04/15 04:14:56;;;;;;;;;4.50;4.00;;;;;18.46;50.18;102706.34;5072348;28;8790;-69
2022/04/15 04:17:21;;;;;;;;;3.25;3.25;;;;;18.46;50.21;102715.19;5072064;28;9533;-70
2022/04/15 04:19:47;;;;;;;;;3.25;3.25;;;;;18.45;50.33;102709.84;5072633;28;8795;-69
2022/04/15 04:22:12;;;;;;;;;2.75;2.75;;;;;18.43;50.21;102704.56;5071783;28;8760;-69
2022/04/15 04:24:37;;;;;;;;;3.50;3.50;;;;;18.43;50.19;102712.50;5072523;28;8838;-70
2022/04/15 04:27:03;;;;;;;;;3.00;3.00;;;;;18.43;50.17;102707.19;5072583;28;8760;-70
2022/04/15 04:29:28;;;;;;;;;3.50;3.50;;;;;18.42;50.03;102710.69;5072203;28;8799;-70
2022/04/15 04:31:53;;;;;;;;;2.00;2.00;;;;;18.44;50.02;102714.28;5072848;28;8878;-70
2022/04/15 04:34:19;;;;;;;;;3.50;3.00;;;;;18.42;50.13;102721.28;5072786;28;9504;-70
2022/04/15 04:36:44;;;;;;;;;3.50;3.50;;;;;18.45;50.15;102723.06;5071802;28;8759;-69
2022/04/15 04:39:09;;;;;;;;;3.00;3.00;;;;;18.44;50.21;102723.97;5072678;28;9515;-70
2022/04/15 04:41:37;;;;;;;;;1.50;1.50;;;;;18.48;49.90;102724.06;5071798;28;8774;-69
2022/04/15 04:44:03;;;;;;;;;2.25;2.25;;;;;18.50;49.97;102732.00;5071843;28;8811;-69
2022/04/15 04:46:28;;;;;;;;;4.00;3.50;;;;;18.52;49.63;102730.34;5072673;28;9381;-69
2022/04/15 04:48:53;;;;;;;;;4.25;3.50;;;;;18.52;49.71;102725.91;5071755;28;8796;-69
2022/04/15 04:51:18;;;;;;;;;3.00;3.00;;;;;18.55;49.70;102733.03;5070980;28;8811;-69
2022/04/15 04:53:44;;;;;;;;;4.00;4.00;;;;;18.55;49.84;102733.03;5071600;28;8787;-69
2022/04/15 04:56:09;;;;;;;;;2.75;2.75;;;;;18.56;50.76;102733.03;5071682;28;8838;-70
2022/04/15 04:58:34;;;;;;;;;4.00;3.25;;;;;18.60;49.63;102736.63;5071688;28;8870;-70
2022/04/15 05:01:00;;;;;;;;;3.75;3.00;;;;;18.61;49.70;102738.41;5071417;28;8760;-70
2022/04/15 05:03:25;;;;;;;;;4.00;4.00;;;;;18.61;49.79;102741.97;5071965;28;8913;-70
2022/04/15 05:05:50;;;;;;;;;3.50;3.00;;;;;18.61;49.68;102739.31;5071026;28;8884;-70
2022/04/15 05:08:15;;;;;;;;;3.75;3.75;;;;;18.63;49.74;102742.88;5071277;28;8799;-70
2022/04/15 05:10:41;;;;;;;;;5.25;4.00;;;;;18.63;49.82;102748.16;5071667;28;8791;-70
2022/04/15 05:13:09;;;;;;;;;4.00;4.00;;;;;18.63;49.95;102744.66;5068517;28;8803;-69
2022/04/15 05:15:34;;;;;;;;;4.00;3.00;;;;;18.63;49.75;102749.94;5071850;28;8772;-69
2022/04/15 05:17:59;;;;;;;;;2.50;2.00;;;;;18.63;49.78;102758.75;5070836;28;9599;-70
2022/04/15 05:20:24;;;;;;;;;2.00;2.00;;;;;18.63;49.90;102760.53;5071251;28;8784;-69
2022/04/15 05:22:50;;;;;;;;;3.00;3.00;;;;;18.65;50.08;102759.69;5071141;28;8878;-69
2022/04/15 05:25:15;;;;;;;;;2.25;2.25;;;;;18.62;50.00;102764.91;5071074;28;9639;-69
2022/04/15 05:27:40;;;;;;;;;2.00;2.00;;;;;18.65;49.84;102774.66;5070886;28;8817;-69
2022/04/15 05:30:07;;;;;;;;;2.25;2.25;;;;;18.63;49.68;102776.41;5071059;28;8771;-69
2022/04/15 05:32:32;;;;;;;;;3.00;3.00;;;;;18.63;49.87;102781.69;5070745;28;8760;-70
2022/04/15 05:34:57;;;;;;;;;2.50;2.00;;;;;18.63;50.01;102786.97;5070937;28;9665;-69
2022/04/15 05:37:26;;;;;;;;;3.00;3.00;;;;;18.63;50.24;102785.19;5071319;28;8813;-69
2022/04/15 05:39:51;;;;;;;;;2.00;2.00;;;;;18.64;49.89;102789.63;5070076;28;8926;-70
2022/04/15 05:42:16;;;;;;;;;3.25;3.25;;;;;18.63;49.76;102798.44;5070970;28;10066;-70
2022/04/15 05:44:41;;;;;;;;;2.75;2.75;;;;;18.65;49.93;102795.81;5071147;28;8860;-71
2022/04/15 05:47:07;;;;;;;;;5.00;3.50;;;;;18.66;49.80;102803.81;5070053;28;8776;-70
2022/04/15 05:49:34;;;;;;;;;2.25;2.25;;;;;18.66;49.99;102803.81;5071294;28;8772;-69
2022/04/15 05:52:02;;;;;;;;;2.50;2.50;;;;;18.68;49.66;102802.06;5070609;28;9677;-70
2022/04/15 05:54:30;;;;;;;;;1.00;1.00;;;;;18.68;49.85;102807.34;5069427;28;9570;-70
2022/04/15 05:56:56;;;;;;;;;3.75;2.00;;;;;18.67;49.76;102804.69;5070501;28;9505;-70
2022/04/15 05:59:21;;;;;;;;;2.50;2.50;;;;;18.66;49.90;102808.19;5070760;28;9314;-70
2022/04/15 06:01:53;;;;;;;;;3.00;3.00;;;;;18.66;49.86;102805.56;5069552;28;8802;-70
2022/04/15 06:04:18;;;;;;;;;4.00;4.00;;;;;18.67;49.97;102812.63;5070268;28;9089;-70
2022/04/15 06:06:43;;;;;;;;;2.75;2.75;;;;;18.68;49.59;102814.41;5070322;28;9419;-70
2022/04/15 06:09:11;;;;;;;;;2.00;2.00;;;;;18.68;49.55;102811.75;5070095;28;8811;-70
2022/04/15 06:11:37;;;;;;;;;2.00;2.00;;;;;18.65;49.72;102809.94;5070735;28;8767;-70
2022/04/15 06:14:04;;;;;;;;;3.00;2.75;;;;;18.67;50.07;102820.56;5070148;28;9335;-70
2022/04/15 06:16:32;;;;;;;;;3.00;3.00;;;;;18.64;49.92;102816.09;5069937;28;8937;-70
2022/04/15 06:19:00;;;;;;;;;1.25;1.25;;;;;18.64;49.71;102825.78;5070140;28;9382;-70
2022/04/15 06:21:25;;;;;;;;;1.00;1.00;;;;;18.63;49.72;102827.53;5069947;28;9563;-70
2022/04/15 06:23:51;;;;;;;;;1.00;1.00;;;;;18.64;50.02;102815.19;5069808;28;9449;-70
2022/04/15 06:26:16;;;;;;;;;2.33;1.67;;;;;18.63;49.87;102826.66;5070666;28;8842;-70
2022/04/15 06:28:47;;;;;;;;;3.67;3.00;;;;;18.64;49.81;102824.03;5069973;28;8775;-70
2022/04/15 06:31:13;;;;;;;;;1.67;1.67;;;;;18.64;50.00;102833.72;5070620;28;8878;-70
2022/04/15 06:33:38;;;;;;;;;1.33;1.33;;;;;18.64;49.73;102831.97;5069207;28;10004;-69
2022/04/15 06:36:04;;;;;;;;;3.00;3.00;;;;;18.63;49.87;102829.31;5069391;28;8792;-69
2022/04/15 06:38:29;;;;;;;;;1.75;1.75;;;;;18.63;49.82;102835.47;5070191;28;8775;-69
2022/04/15 06:40:55;;;;;;;;;1.75;1.75;;;;;18.61;50.05;102839.84;5069857;28;9627;-69
2022/04/15 06:43:20;;;;;;;;;2.00;2.00;;;;;18.64;49.82;102845.19;5069779;28;8839;-69
2022/04/15 06:45:45;;;;;;;;;1.00;1.00;;;;;18.65;50.41;102861.97;5069924;28;8763;-69
2022/04/15 06:48:11;;;;;;;;;1.00;1.00;;;;;18.63;49.96;102856.63;5070078;28;8776;-69
2022/04/15 06:50:36;;;;;;;;;2.00;2.00;;;;;18.63;50.08;102856.63;5069416;28;8763;-69
2022/04/15 06:53:02;;;;;;;;;2.00;2.00;;;;;18.64;50.06;102849.59;5070291;28;8759;-69
2022/04/15 06:55:28;;;;;;;;;3.00;2.00;;;;;18.63;49.83;102856.63;5070172;28;8787;-69
2022/04/15 06:57:53;;;;;;;;;1.00;1.00;;;;;18.64;49.92;102853.13;5069750;28;8768;-70
2022/04/15 07:00:19;;;;;;;;;3.00;2.00;;;;;18.64;49.86;102858.44;5070350;28;8768;-69
2022/04/15 07:02:44;;;;;;;;;2.33;1.67;;;;;18.64;49.80;102863.72;5069799;28;8779;-70
2022/04/15 07:05:10;;;;;;;;;2.00;1.00;;;;;18.67;50.00;102862.91;5070690;28;8819;-69
2022/04/15 07:07:37;;;;;;;;;2.00;2.00;;;;;18.67;50.05;102861.13;5074333;28;8791;-69
2022/04/15 07:10:03;;;;;;;;;3.00;2.00;;;;;18.69;50.05;102863.81;5074121;28;8814;-70
2022/04/15 07:12:28;;;;;;;;;2.00;2.00;;;;;18.69;50.05;102869.13;5073636;28;9251;-69
2022/04/15 07:14:54;;;;;;;;;1.33;1.00;;;;;18.70;49.96;102866.50;5073834;28;9314;-70
2022/04/15 07:17:19;;;;;;;;;1.67;1.67;;;;;18.72;50.08;102866.53;5073987;28;8811;-69
2022/04/15 07:19:44;;;;;;;;;0.67;0.67;;;;;18.69;50.16;102877.94;5073320;28;8783;-69
2022/04/15 07:22:10;;;;;;;;;1.67;1.67;;;;;18.70;50.25;102870.91;5074370;28;8774;-70
2022/04/15 07:24:35;;;;;;;;;2.00;2.00;;;;;18.70;50.24;102873.56;5073756;28;8896;-70
2022/04/15 07:27:01;;;;;;;;;0.67;0.67;;;;;18.70;49.81;102879.75;5073029;28;8788;-70
2022/04/15 07:29:26;;;;;;;;;0.00;0.00;;;;;18.71;50.26;102875.31;5074141;28;8780;-68
2022/04/15 07:31:54;;;;;;;;;2.00;2.00;;;;;18.70;50.84;102878.84;5073458;28;8802;-69
2022/04/15 07:34:20;;;;;;;;;2.00;2.00;;;;;18.73;51.94;102887.75;5073020;28;8795;-70
2022/04/15 07:36:53;;;;;;;;;1.00;1.00;;;;;18.72;50.49;102890.34;5071725;28;9427;-70
2022/04/15 07:39:19;;;;;;;;;1.67;1.67;;;;;18.74;50.41;102888.63;5071522;28;8800;-69
2022/04/15 07:41:45;;;;;;;;;1.00;1.00;;;;;18.70;50.37;102882.38;5073206;28;9319;-69
2022/04/15 07:44:31;;;;;;;;;1.33;1.33;;;;;18.70;50.53;102885.03;5073103;28;8804;-69
2022/04/15 07:46:56;;;;;;;;;2.67;2.67;;;;;18.71;50.44;102884.16;5071329;28;9318;-69
2022/04/15 07:49:21;;;;;;;;;2.00;2.00;;;;;18.70;50.45;102887.69;5071733;28;9406;-70
2022/04/15 07:51:48;;;;;;;;;3.00;3.00;;;;;18.69;50.40;102880.59;5072469;28;8810;-70
2022/04/15 07:54:14;;;;;;;;;1.00;1.00;;;;;18.69;50.73;102874.41;5072096;28;9592;-69
2022/04/15 07:56:39;;;;;;;;;1.75;1.00;;;;;18.70;50.27;102885.03;5071930;28;9626;-69
2022/04/15 07:59:04;;;;;;;;;1.00;1.00;;;;;18.69;50.34;102885.88;5070943;28;9570;-69
2022/04/15 08:01:30;;;;;;;;;1.00;1.00;;;;;18.70;50.36;102885.03;5071459;28;8896;-70
2022/04/15 08:03:57;;;;;;;;;1.00;1.00;;;;;18.71;50.32;102886.78;5071901;28;8989;-70
2022/04/15 08:06:24;;;;;;;;;1.25;1.25;;;;;18.73;50.17;102881.56;5072023;28;10133;-70
2022/04/15 08:08:50;;;;;;;;;2.00;1.00;;;;;18.74;50.34;102886.00;5070507;28;9408;-70
2022/04/15 08:11:16;;;;;;;;;1.00;1.00;;;;;18.73;50.20;102879.81;5071706;28;9327;-69
2022/04/15 08:13:41;;;;;;;;;1.00;1.00;;;;;18.75;50.34;102882.47;5072138;28;8837;-69
2022/04/15 08:16:08;;;;;;;;;2.00;2.00;;;;;18.74;50.46;102889.53;5070679;28;9334;-69
2022/04/15 08:18:34;;;;;;;;;0.67;0.67;;;;;18.78;50.47;102895.78;5071079;28;9562;-70
2022/04/15 08:20:59;;;;;;;;;0.67;0.67;;;;;18.76;50.18;102890.44;5071325;28;9309;-70
2022/04/15 08:23:24;;;;;;;;;2.00;2.00;;;;;18.75;50.33;102883.34;5071295;28;8887;-70
2022/04/15 08:25:50;;;;;;;;;1.00;1.00;;;;;18.77;50.30;102894.88;5071791;28;8823;-70
2022/04/15 08:28:15;;;;;;;;;1.00;1.00;;;;;18.80;50.10;102892.28;5070320;28;8983;-70
2022/04/15 08:30:41;;;;;;;;;1.00;1.00;;;;;18.79;50.33;102892.25;5071029;28;8800;-70
2022/04/15 08:33:07;;;;;;;;;3.75;2.25;;;;;18.81;50.29;102895.84;5071489;28;8795;-70
2022/04/15 08:35:36;;;;;;;;;1.33;0.67;;;;;18.83;50.35;102895.00;5070823;28;8788;-69
2022/04/15 08:38:01;;;;;;;;;1.00;1.00;;;;;18.86;50.30;102895.94;5070785;28;9324;-70
2022/04/15 08:40:32;;;;;;;;;0.75;0.75;;;;;18.86;50.33;102898.59;5071296;28;9275;-70
2022/04/15 08:43:00;;;;;;;;;1.00;1.00;;;;;18.85;50.40;102897.69;5070833;28;8799;-70
2022/04/15 08:45:26;;;;;;;;;1.75;1.75;;;;;18.90;50.56;102906.59;5071321;28;9432;-69
2022/04/15 08:47:57;;;;;;;;;2.00;2.00;;;;;18.90;50.23;102906.59;5071475;28;9349;-70
2022/04/15 08:50:23;;;;;;;;;1.00;0.00;;;;;18.91;50.13;102907.50;5069659;28;9436;-69
2022/04/15 08:52:52;;;;;;;;;0.33;0.33;;;;;18.92;50.30;102914.56;5070992;28;9221;-70
2022/04/15 08:55:17;;;;;;;;;1.00;1.00;;;;;18.90;50.33;102909.25;5071396;28;9432;-70
2022/04/15 08:57:42;;;;;;;;;1.50;1.50;;;;;18.91;50.25;102911.03;5070273;28;9306;-70
2022/04/15 09:00:08;;;;;;;;;1.00;1.00;;;;;18.92;50.31;102918.13;5070102;28;8796;-70
2022/04/15 09:02:38;;;;;;;;;1.00;1.00;;;;;18.91;50.26;102916.31;5071397;28;8804;-70
2022/04/15 09:05:04;;;;;;;;;1.00;1.00;;;;;18.92;50.50;102926.06;5070231;28;8842;-69
2022/04/15 09:07:33;;;;;;;;;0.00;0.00;;;;;18.91;50.24;102921.63;5070371;28;9261;-69
2022/04/15 09:10:01;;;;;;;;;1.00;1.00;;;;;19.00;52.07;102927.13;5069385;28;9384;-69
2022/04/15 09:12:30;;;;;;;;;2.00;1.00;;;;;19.18;51.33;102919.53;5070964;28;9403;-70
2022/04/15 09:15:00;;;;;;;;;4.67;4.33;;;;;19.36;55.60;102934.88;5071571;28;9383;-70
2022/04/15 09:17:28;;;;;;;;;4.67;2.33;;;;;19.45;58.03;102929.78;5071309;28;9455;-68
2022/04/15 09:19:54;;;;;;;;;3.25;2.75;;;;;19.56;60.28;102933.53;5070511;28;9325;-70
2022/04/15 09:22:19;;;;;;;;;2.00;2.00;;;;;19.66;58.96;102932.81;5071204;28;9533;-71
2022/04/15 09:24:47;;;;;;;;;3.00;3.00;;;;;19.75;61.84;102927.69;5070089;28;8778;-71
2022/04/15 09:27:12;;;;;;;;;3.00;2.50;;;;;19.83;64.53;102941.06;5070956;28;8764;-69
2022/04/15 09:29:40;;;;;;;;;5.50;3.50;;;;;19.82;64.05;102944.56;5071199;28;9507;-68
2022/04/15 09:32:14;;;;;;;;;3.00;2.00;;;;;19.81;65.39;102945.44;5070058;28;8785;-68
2022/04/15 09:35:16;;;;;;;;;3.75;3.75;;;;;19.76;65.50;102945.34;5071087;28;9474;-66
2022/04/15 09:37:43;;;;;;;;;6.25;3.50;;;;;19.79;67.89;102944.53;5028116;28;9619;-67
2022/04/15 09:40:12;;;;;;;;;2.67;1.00;;;;;19.75;64.40;102950.66;5070789;28;9401;-67
2022/04/15 09:42:47;;;;;;;;;2.25;2.00;;;;;19.66;62.09;102947.81;5071270;28;9345;-68
2022/04/15 09:45:27;;;;;;;;;3.00;3.00;;;;;19.62;61.44;102957.47;5070711;28;9586;-68
2022/04/15 09:47:57;;;;;;;;;1.67;1.67;;;;;19.62;61.96;102951.28;5068717;28;9544;-67
2022/04/15 09:50:35;;;;;;;;;2.00;1.00;;;;;19.59;59.08;102953.88;5060256;28;9451;-68
2022/04/15 09:53:14;;;;;;;;;2.25;1.50;;;;;19.58;58.54;102952.97;5066776;28;10179;-68
2022/04/15 09:55:42;;;;;;;;;2.00;2.00;;;;;19.56;54.14;102957.38;5069916;28;9407;-67
2022/04/15 09:58:12;;;;;;;;;2.00;2.00;;;;;19.57;54.24;102948.53;5069383;28;9495;-67
2022/04/15 10:00:39;;;;;;;;;1.25;1.25;;;;;19.57;53.57;102956.47;5071657;28;9373;-68
2022/04/15 10:03:08;;;;;;;;;0.00;0.00;;;;;19.55;51.64;102954.69;5069173;28;9411;-68
2022/04/15 10:05:35;;;;;;;;;3.00;2.00;;;;;19.50;48.91;102959.00;5069807;28;9475;-68
2022/04/15 10:08:04;;;;;;;;;2.00;2.00;;;;;19.47;48.72;102964.25;5069066;28;9706;-68
2022/04/15 10:10:33;;;;;;;;;2.00;2.00;;;;;19.43;48.20;102962.41;5067760;28;9439;-68
2022/04/15 10:13:00;;;;;;;;;1.00;1.00;;;;;19.45;49.20;102960.69;5068755;28;9483;-68
2022/04/15 10:15:27;;;;;;;;;1.00;1.00;;;;;19.48;48.97;102956.34;5068053;28;9430;-68
2022/04/15 10:17:52;;;;;;;;;1.00;1.00;;;;;19.53;48.83;102956.44;5069082;28;9367;-68
2022/04/15 10:20:18;;;;;;;;;1.33;1.00;;;;;19.51;48.95;102951.09;5070287;28;9391;-67
2022/04/15 10:22:45;;;;;;;;;1.00;1.00;;;;;19.48;49.26;102956.34;5069982;28;8782;-67
2022/04/15 10:25:10;;;;;;;;;1.00;1.00;;;;;19.47;48.90;102954.53;5070464;28;8840;-68
2022/04/15 10:27:35;;;;;;;;;1.25;1.25;;;;;19.46;48.68;102949.22;5070319;28;9337;-68
2022/04/15 10:30:13;;;;;;;;;2.25;1.00;;;;;19.48;49.24;102943.09;5069785;28;8786;-67
2022/04/15 10:32:48;;;;;;;;;2.00;1.00;;;;;19.53;48.93;102946.69;5069672;28;8766;-67
2022/04/15 10:35:28;;;;;;;;;1.00;1.00;;;;;19.56;48.95;102953.81;5069238;28;9351;-67
2022/04/15 10:38:10;;;;;;;;;1.50;1.50;;;;;19.54;49.08;102950.25;5069865;28;10103;-67
2022/04/15 10:40:43;;;;;;;;;1.00;1.00;;;;;19.55;48.43;102957.34;5069954;28;9341;-67
2022/04/15 10:43:21;;;;;;;;;1.00;1.00;;;;;19.55;48.88;102955.56;5069438;28;9331;-67
2022/04/15 10:45:47;;;;;;;;;1.00;1.00;;;;;19.56;48.32;102951.19;5069005;28;9417;-67
2022/04/15 10:48:12;;;;;;;;;1.00;1.00;;;;;19.54;48.97;102939.63;5068266;28;9471;-68
2022/04/15 10:50:40;;;;;;;;;1.00;1.00;;;;;19.53;48.20;102941.38;5068431;28;8903;-67
2022/04/15 10:53:17;;;;;;;;;1.00;1.00;;;;;19.55;48.32;102938.78;5069239;28;8802;-68
2022/04/15 10:55:48;;;;;;;;;1.00;1.00;;;;;19.54;48.23;102947.59;5068940;28;9262;-67
2022/04/15 10:58:15;;;;;;;;;1.00;1.00;;;;;19.55;48.36;102946.72;5068442;28;9203;-67
2022/04/15 11:03:28;;;;;;;;;3.00;0.75;;;;;19.58;47.52;102939.72;5068699;28;9291;-66
2022/04/15 11:06:04;;;;;;;;;1.00;1.00;;;;;19.60;47.86;102945.06;5069421;28;9484;-68
2022/04/15 11:08:44;;;;;;;;;0.00;0.00;;;;;19.57;47.81;102940.59;5069841;28;9303;-68
2022/04/15 11:11:12;;;;;;;;;1.25;1.25;;;;;19.51;48.01;102929.00;5069409;28;9252;-68
2022/04/15 11:13:40;;;;;;;;;0.00;0.00;;;;;19.47;47.95;102941.28;5070415;28;9495;-68
2022/04/15 11:18:43;;;;;;;;;1.67;1.00;;;;;19.43;48.08;102933.25;5070029;28;9289;-67
2022/04/15 11:21:14;;;;;;;;;0.00;0.00;;;;;19.43;48.28;102936.78;5070109;28;9416;-68
2022/04/15 11:23:41;;;;;;;;;0.00;0.00;;;;;19.45;48.14;102939.50;5069889;28;9321;-68
2022/04/15 11:26:07;;;;;;;;;0.00;0.00;;;;;19.49;48.19;102938.69;5069635;28;9253;-68
2022/04/15 11:28:33;;;;;;;;;1.67;1.00;;;;;19.49;48.38;102942.22;5070212;28;9163;-68
2022/04/15 11:30:58;;;;;;;;;1.00;1.00;;;;;19.50;48.19;102943.09;5069984;28;9480;-69
2022/04/15 11:33:23;;;;;;;;;0.00;0.00;;;;;19.50;48.58;102937.78;5069565;28;8886;-69
2022/04/15 11:35:48;;;;;;;;;1.00;1.00;;;;;19.48;48.22;102945.72;5069759;28;8787;-68
2022/04/15 11:38:15;;;;;;;;;0.67;0.67;;;;;19.50;48.38;102937.78;5069576;28;8764;-67